Time;durP1;ratioP1;P1;durP2;ratioP2;P2;SDS_P1;SDS_P2;PMS_P1;PMS_P2;Temp;Humidity;BMP_temperature;BMP_pressure;BME280_temperature;BME280_humidity;BME280_pressure;Samples;Min_cycle;Max_cycle;Signal;HPM_P1;HPM_P2
2023/10/21 00:00:21;;;;;;;3.85;3.08;;;12.80;99.90;;;;;;5011806;28;20176;-57
2023/10/21 00:02:46;;;;;;;6.25;3.22;;;12.80;99.90;;;;;;5011569;28;20199;-54
2023/10/21 00:05:12;;;;;;;4.65;3.25;;;12.70;99.90;;;;;;5011964;28;20176;-54
2023/10/21 00:07:37;;;;;;;4.05;3.10;;;12.70;99.90;;;;;;5012179;28;20173;-54
2023/10/21 00:10:06;;;;;;;4.03;3.15;;;12.80;99.90;;;;;;5011330;28;20221;-54
2023/10/21 00:12:33;;;;;;;6.05;3.70;;;12.70;99.90;;;;;;5011799;28;20168;-55
2023/10/21 00:14:58;;;;;;;10.48;3.50;;;12.70;99.90;;;;;;5011565;28;20528;-55
2023/10/21 00:17:26;;;;;;;5.50;3.75;;;12.80;99.90;;;;;;5011655;28;20164;-54
2023/10/21 00:19:51;;;;;;;3.28;2.90;;;12.80;99.90;;;;;;5011863;28;20172;-55
2023/10/21 00:22:17;;;;;;;5.28;3.83;;;12.80;99.90;;;;;;5011598;28;20210;-55
2023/10/21 00:24:42;;;;;;;11.73;3.92;;;12.80;99.90;;;;;;5011668;28;20168;-58
2023/10/21 00:27:08;;;;;;;7.15;3.30;;;12.80;99.90;;;;;;5011840;28;20582;-54
2023/10/21 00:29:34;;;;;;;5.28;3.28;;;12.70;99.90;;;;;;5011274;28;20668;-58
2023/10/21 00:31:59;;;;;;;6.28;3.40;;;12.80;99.90;;;;;;5011436;28;20168;-55
2023/10/21 00:34:25;;;;;;;5.18;3.40;;;12.80;99.90;;;;;;5011641;28;20199;-54
2023/10/21 00:36:50;;;;;;;9.27;3.13;;;12.70;99.90;;;;;;5011421;28;20168;-54
2023/10/21 00:39:16;;;;;;;3.78;2.90;;;12.80;99.90;;;;;;5011510;28;20536;-54
2023/10/21 00:41:42;;;;;;;3.67;2.88;;;12.80;99.90;;;;;;5011374;28;20214;-56
2023/10/21 00:44:08;;;;;;;4.70;3.20;;;12.80;99.90;;;;;;5012003;28;20172;-54
2023/10/21 00:46:34;;;;;;;6.80;3.17;;;12.80;99.90;;;;;;5011226;28;20655;-54
2023/10/21 00:49:00;;;;;;;5.00;3.42;;;12.80;99.90;;;;;;5011174;28;20207;-54
2023/10/21 00:51:26;;;;;;;4.85;3.25;;;12.90;99.90;;;;;;5011249;28;20180;-54
2023/10/21 00:53:54;;;;;;;6.78;2.88;;;12.90;99.90;;;;;;5011237;28;20176;-57
2023/10/21 00:56:19;;;;;;;4.07;2.85;;;12.90;99.90;;;;;;5011335;28;20263;-54
2023/10/21 00:58:45;;;;;;;6.38;3.25;;;12.90;99.90;;;;;;5011336;28;20271;-54
2023/10/21 01:01:13;;;;;;;7.32;3.40;;;12.80;99.90;;;;;;5011754;28;20226;-63
2023/10/21 01:03:40;;;;;;;3.67;2.78;;;11.50;99.90;;;;;;5012651;28;20208;-63
2023/10/21 01:06:06;;;;;;;5.63;2.80;;;12.90;99.90;;;;;;5014730;28;20254;-62
2023/10/21 01:08:39;;;;;;;5.85;3.03;;;12.80;99.90;;;;;;5014861;28;20274;-64
2023/10/21 01:11:05;;;;;;;5.25;3.60;;;12.90;99.90;;;;;;5014541;28;20282;-63
2023/10/21 01:13:30;;;;;;;8.18;4.05;;;12.80;99.90;;;;;;5014811;28;20168;-63
2023/10/21 01:15:56;;;;;;;4.18;3.78;;;12.90;99.90;;;;;;5014691;28;20201;-64
2023/10/21 01:18:21;;;;;;;3.85;3.25;;;12.90;99.90;;;;;;5014677;28;20649;-62
2023/10/21 01:20:52;;;;;;;5.90;3.53;;;12.90;99.90;;;;;;5014744;28;20691;-64
2023/10/21 01:23:17;;;;;;;5.57;3.58;;;12.80;99.90;;;;;;5014686;28;20222;-66
2023/10/21 01:25:43;;;;;;;4.03;3.63;;;12.90;99.90;;;;;;5014497;28;20172;-66
2023/10/21 01:28:09;;;;;;;4.78;3.38;;;12.90;99.90;;;;;;5015131;28;20261;-66
2023/10/21 01:30:34;;;;;;;6.38;3.50;;;12.80;99.90;;;;;;5014363;28;20203;-65
2023/10/21 01:33:00;;;;;;;5.47;3.63;;;12.90;99.90;;;;;;5014757;28;20172;-55
2023/10/21 01:35:26;;;;;;;8.63;4.68;;;12.90;99.90;;;;;;5014774;28;20178;-55
2023/10/21 01:37:51;;;;;;;5.80;4.07;;;12.90;99.90;;;;;;5014347;28;20540;-55
2023/10/21 01:40:17;;;;;;;9.13;5.10;;;12.90;99.90;;;;;;5014793;28;20180;-55
2023/10/21 01:42:42;;;;;;;5.88;4.47;;;12.90;99.90;;;;;;5014173;28;20586;-55
2023/10/21 01:45:09;;;;;;;10.45;5.00;;;12.90;99.90;;;;;;5013337;28;20195;-55
2023/10/21 01:47:35;;;;;;;7.70;4.63;;;12.90;99.90;;;;;;5014129;28;20169;-54
2023/10/21 01:50:07;;;;;;;8.07;4.78;;;12.90;99.90;;;;;;5014042;28;20247;-55
2023/10/21 01:52:34;;;;;;;6.55;4.50;;;13.00;99.90;;;;;;5014391;28;20175;-55
2023/10/21 01:55:03;;;;;;;7.53;4.85;;;12.90;99.90;;;;;;5014542;28;20787;-55
2023/10/21 01:57:29;;;;;;;7.57;4.97;;;13.00;99.90;;;;;;5013990;28;20196;-55
2023/10/21 01:59:54;;;;;;;7.15;5.18;;;13.00;99.90;;;;;;5014243;28;20248;-55
2023/10/21 02:02:20;;;;;;;5.85;5.03;;;12.90;99.90;;;;;;5014077;28;20635;-55
2023/10/21 02:04:46;;;;;;;6.63;5.35;;;12.90;99.90;;;;;;5013707;28;20206;-55
2023/10/21 02:07:11;;;;;;;11.30;6.35;;;12.90;99.90;;;;;;5013802;28;20164;-55
2023/10/21 02:09:37;;;;;;;10.00;7.03;;;13.00;99.90;;;;;;5013940;28;20277;-55
2023/10/21 02:12:02;;;;;;;12.68;6.90;;;13.10;99.90;;;;;;5013754;28;20243;-55
2023/10/21 02:14:28;;;;;;;10.25;7.25;;;13.00;99.90;;;;;;5013618;28;20193;-55
2023/10/21 02:16:54;;;;;;;9.80;6.45;;;13.00;99.90;;;;;;5012756;28;20174;-55
2023/10/21 02:19:20;;;;;;;8.38;5.28;;;13.00;99.90;;;;;;5013833;28;20175;-55
2023/10/21 02:21:46;;;;;;;9.65;5.85;;;13.20;99.90;;;;;;5013395;28;20826;-54
2023/10/21 02:24:12;;;;;;;9.55;5.82;;;13.10;99.90;;;;;;5013374;28;20180;-56
2023/10/21 02:26:38;;;;;;;10.68;5.68;;;13.00;99.90;;;;;;5013850;28;20223;-55
2023/10/21 02:29:03;;;;;;;6.00;5.13;;;13.00;99.90;;;;;;5013559;28;20172;-54
2023/10/21 02:31:29;;;;;;;9.27;5.60;;;13.00;99.90;;;;;;5013423;28;20172;-54
2023/10/21 02:33:55;;;;;;;6.55;4.20;;;13.10;99.90;;;;;;5013265;28;20164;-55
2023/10/21 02:36:21;;;;;;;5.28;4.25;;;13.10;99.90;;;;;;5013125;28;20172;-55
2023/10/21 02:38:47;;;;;;;4.78;3.45;;;13.10;99.90;;;;;;5013097;28;20175;-55
2023/10/21 02:41:13;;;;;;;5.07;3.45;;;13.00;99.90;;;;;;5013230;28;20190;-55
2023/10/21 02:43:39;;;;;;;3.33;2.95;;;13.00;99.90;;;;;;5013497;28;20651;-54
2023/10/21 02:46:08;;;;;;;3.60;2.33;;;13.00;99.90;;;;;;5012976;28;20167;-54
2023/10/21 02:48:34;;;;;;;4.30;3.30;;;13.10;99.90;;;;;;5013325;28;20226;-56
2023/10/21 02:51:07;;;;;;;7.30;2.90;;;13.10;99.90;;;;;;5013004;28;20203;-54
2023/10/21 02:53:33;;;;;;;4.57;2.75;;;13.20;99.90;;;;;;5013214;28;20164;-54
2023/10/21 02:55:59;;;;;;;4.57;2.40;;;13.20;99.90;;;;;;5012948;28;20650;-55
2023/10/21 02:58:25;;;;;;;4.70;2.20;;;13.20;99.90;;;;;;5012799;28;20322;-54
2023/10/21 03:00:51;;;;;;;3.80;2.38;;;13.30;99.90;;;;;;5012736;28;20203;-55
2023/10/21 03:03:16;;;;;;;4.18;2.13;;;13.20;99.90;;;;;;5012903;28;20307;-55
2023/10/21 03:05:42;;;;;;;3.08;2.58;;;13.20;99.90;;;;;;5012588;28;20632;-55
2023/10/21 03:08:08;;;;;;;4.78;2.78;;;13.20;99.90;;;;;;5013341;28;20627;-56
2023/10/21 03:10:36;;;;;;;7.50;2.80;;;13.30;99.90;;;;;;5012389;28;20232;-56
2023/10/21 03:13:02;;;;;;;6.85;2.40;;;13.30;99.90;;;;;;5012612;28;20171;-55
2023/10/21 03:15:27;;;;;;;3.33;2.30;;;13.20;99.90;;;;;;5012510;28;20222;-54
2023/10/21 03:17:53;;;;;;;5.68;2.03;;;13.30;99.90;;;;;;5012355;28;20164;-55
2023/10/21 03:20:19;;;;;;;2.58;2.20;;;13.20;99.90;;;;;;5012644;28;20643;-55
2023/10/21 03:22:44;;;;;;;3.25;2.33;;;13.20;99.90;;;;;;5012401;28;20226;-55
2023/10/21 03:25:11;;;;;;;4.32;2.22;;;13.30;99.90;;;;;;5012812;28;20188;-55
2023/10/21 03:27:37;;;;;;;5.22;2.28;;;13.30;99.90;;;;;;5013000;28;20218;-55
2023/10/21 03:30:04;;;;;;;2.78;2.00;;;13.20;99.90;;;;;;5010963;28;20212;-55
2023/10/21 03:32:30;;;;;;;3.10;2.00;;;13.30;99.90;;;;;;5012663;28;20171;-55
2023/10/21 03:34:55;;;;;;;1.92;1.73;;;13.20;99.90;;;;;;5012177;28;20180;-55
2023/10/21 03:37:21;;;;;;;2.53;2.03;;;13.40;99.90;;;;;;5012081;28;20168;-55
2023/10/21 03:39:47;;;;;;;3.55;1.92;;;13.40;99.90;;;;;;5010943;28;20172;-55
2023/10/21 03:42:12;;;;;;;6.38;2.00;;;13.40;99.90;;;;;;5012046;28;20209;-55
2023/10/21 03:44:38;;;;;;;5.32;2.33;;;13.40;99.90;;;;;;5012421;28;20168;-54
2023/10/21 03:47:04;;;;;;;3.67;1.80;;;13.30;99.90;;;;;;5012438;28;20255;-55
2023/10/21 03:49:30;;;;;;;5.28;2.05;;;13.30;99.90;;;;;;5010614;28;20858;-55
2023/10/21 03:51:56;;;;;;;3.20;2.10;;;13.50;99.90;;;;;;5011995;28;20194;-55
2023/10/21 03:54:21;;;;;;;5.15;2.42;;;13.50;99.90;;;;;;5011792;28;20164;-55
2023/10/21 03:56:47;;;;;;;7.80;3.25;;;13.40;99.90;;;;;;5011776;28;20624;-56
2023/10/21 03:59:12;;;;;;;5.82;3.05;;;13.50;99.90;;;;;;5011707;28;20176;-57
2023/10/21 04:01:38;;;;;;;3.70;2.75;;;13.50;99.90;;;;;;5012189;28;20180;-55
2023/10/21 04:04:04;;;;;;;5.75;2.88;;;13.50;99.90;;;;;;5011774;28;20172;-55
2023/10/21 04:06:29;;;;;;;6.68;2.90;;;13.50;99.90;;;;;;5011891;28;20167;-55
2023/10/21 04:08:55;;;;;;;7.35;2.53;;;13.60;99.90;;;;;;5011726;28;20175;-55
2023/10/21 04:11:21;;;;;;;7.55;2.47;;;13.60;99.90;;;;;;5011497;28;20232;-55
2023/10/21 04:13:46;;;;;;;3.58;2.17;;;13.60;99.90;;;;;;5011530;28;20669;-55
2023/10/21 04:16:13;;;;;;;4.55;2.40;;;13.60;99.90;;;;;;5011790;28;20175;-55
2023/10/21 04:18:38;;;;;;;4.95;2.67;;;13.40;99.90;;;;;;5012249;28;20182;-55
2023/10/21 04:21:05;;;;;;;9.48;2.92;;;13.60;99.90;;;;;;5011557;28;20173;-65
2023/10/21 04:23:31;;;;;;;4.70;2.72;;;13.60;99.90;;;;;;5011861;28;20186;-66
2023/10/21 04:25:56;;;;;;;5.53;2.88;;;13.60;99.90;;;;;;5011512;28;20522;-65
2023/10/21 04:28:23;;;;;;;8.13;3.33;;;13.50;99.90;;;;;;5011644;28;20176;-66
2023/10/21 04:30:48;;;;;;;8.93;3.70;;;13.60;99.90;;;;;;5011639;28;20243;-66
2023/10/21 04:33:15;;;;;;;8.05;3.53;;;13.60;99.90;;;;;;5011375;28;20200;-66
2023/10/21 04:35:40;;;;;;;11.50;3.72;;;13.50;99.90;;;;;;5011387;28;20172;-59
2023/10/21 04:38:09;;;;;;;11.10;4.20;;;13.50;99.90;;;;;;5011840;28;20221;-63
2023/10/21 04:40:34;;;;;;;7.65;3.63;;;13.50;99.90;;;;;;5015329;28;20652;-55
2023/10/21 04:43:00;;;;;;;9.35;4.55;;;13.50;99.90;;;;;;5015726;28;20176;-55
2023/10/21 04:45:26;;;;;;;6.35;3.33;;;13.60;99.90;;;;;;5015344;28;20212;-55
2023/10/21 04:47:51;;;;;;;10.98;4.60;;;13.50;99.90;;;;;;5015590;28;20164;-56
2023/10/21 04:50:17;;;;;;;8.15;4.47;;;13.50;99.90;;;;;;5015267;28;20204;-55
2023/10/21 04:52:43;;;;;;;9.95;4.22;;;13.40;99.90;;;;;;5015061;28;20242;-55
2023/10/21 04:55:09;;;;;;;10.02;5.60;;;13.60;99.90;;;;;;5015730;28;20190;-55
2023/10/21 04:57:34;;;;;;;6.90;4.47;;;13.30;99.90;;;;;;5015005;28;20168;-55
2023/10/21 05:00:00;;;;;;;11.27;5.22;;;13.30;99.90;;;;;;5015063;28;20510;-54
2023/10/21 05:02:25;;;;;;;6.15;3.22;;;13.30;99.90;;;;;;5015090;28;20719;-54
2023/10/21 05:04:51;;;;;;;5.25;3.55;;;13.20;99.90;;;;;;5015092;28;20169;-54
2023/10/21 05:07:17;;;;;;;3.45;3.13;;;13.20;99.90;;;;;;5014997;28;20182;-55
2023/10/21 05:09:43;;;;;;;3.85;2.83;;;13.20;99.90;;;;;;5014777;28;20314;-55
2023/10/21 05:12:10;;;;;;;4.60;2.90;;;13.20;99.90;;;;;;5015244;28;20199;-55
2023/10/21 05:14:36;;;;;;;3.72;2.30;;;13.10;99.90;;;;;;5015046;28;20662;-55
2023/10/21 05:17:02;;;;;;;6.47;2.72;;;13.20;99.90;;;;;;5014776;28;20631;-55
2023/10/21 05:19:28;;;;;;;4.47;2.83;;;13.10;99.90;;;;;;5014920;28;20190;-55
2023/10/21 05:21:54;;;;;;;5.03;1.58;;;13.00;99.90;;;;;;5014657;28;20674;-55
2023/10/21 05:24:20;;;;;;;1.75;1.55;;;13.10;99.90;;;;;;5014730;28;20168;-56
2023/10/21 05:26:45;;;;;;;6.50;3.22;;;13.10;99.90;;;;;;5014623;28;20222;-55
2023/10/21 05:29:12;;;;;;;4.47;1.98;;;13.00;99.90;;;;;;5013879;28;20171;-55
2023/10/21 05:31:37;;;;;;;3.33;2.65;;;13.10;99.90;;;;;;5015130;28;20258;-55
2023/10/21 05:34:03;;;;;;;6.28;1.92;;;13.10;99.90;;;;;;5014364;28;20248;-55
2023/10/21 05:36:29;;;;;;;2.35;1.42;;;12.90;99.90;;;;;;5014294;28;20662;-55
2023/10/21 05:38:55;;;;;;;6.22;3.00;;;12.90;99.90;;;;;;5014430;28;20168;-56
2023/10/21 05:41:21;;;;;;;2.20;1.80;;;12.90;99.90;;;;;;5014318;28;20175;-55
2023/10/21 05:43:47;;;;;;;6.78;4.00;;;13.00;99.90;;;;;;5014372;28;20195;-55
2023/10/21 05:46:13;;;;;;;2.25;1.80;;;13.00;99.90;;;;;;5014347;28;20630;-55
2023/10/21 05:48:38;;;;;;;7.40;3.75;;;12.90;99.90;;;;;;5014469;28;20658;-56
2023/10/21 05:51:04;;;;;;;5.45;2.60;;;12.90;99.90;;;;;;5012735;28;20674;-56
2023/10/21 05:53:30;;;;;;;13.10;5.00;;;13.00;99.90;;;;;;5014063;28;20740;-55
2023/10/21 05:55:57;;;;;;;4.53;2.58;;;13.10;99.90;;;;;;5014089;28;20200;-56
2023/10/21 05:58:26;;;;;;;4.10;2.00;;;13.10;99.90;;;;;;5014285;28;20242;-55
2023/10/21 06:00:52;;;;;;;4.13;2.03;;;13.10;99.90;;;;;;5013964;28;20169;-55
2023/10/21 06:03:17;;;;;;;2.28;1.48;;;13.10;99.90;;;;;;5013697;28;20175;-54
2023/10/21 06:05:43;;;;;;;1.95;1.70;;;13.10;99.90;;;;;;5013697;28;20271;-58
2023/10/21 06:08:10;;;;;;;2.95;1.83;;;13.10;99.90;;;;;;5014205;28;20247;-56
2023/10/21 06:10:36;;;;;;;2.90;1.90;;;13.10;99.90;;;;;;5014086;28;20239;-55
2023/10/21 06:13:02;;;;;;;5.28;1.77;;;13.10;99.90;;;;;;5013779;28;20168;-55
2023/10/21 06:15:27;;;;;;;2.58;1.92;;;13.20;99.90;;;;;;5013565;28;20202;-55
2023/10/21 06:17:53;;;;;;;2.75;1.98;;;13.20;99.90;;;;;;5013662;28;20529;-55
2023/10/21 06:20:18;;;;;;;1.55;1.25;;;13.20;99.90;;;;;;5013581;28;20187;-55
2023/10/21 06:22:44;;;;;;;4.22;1.95;;;13.10;99.90;;;;;;5013667;28;20181;-55
2023/10/21 06:25:10;;;;;;;2.35;1.45;;;13.30;99.90;;;;;;5013440;28;20245;-56
2023/10/21 06:27:37;;;;;;;1.98;1.15;;;13.30;99.90;;;;;;5011886;28;20172;-55
2023/10/21 06:30:03;;;;;;;2.45;1.50;;;13.20;99.90;;;;;;5013250;28;20200;-54
2023/10/21 06:32:29;;;;;;;2.00;1.30;;;13.40;99.90;;;;;;5012027;28;20703;-57
2023/10/21 06:34:55;;;;;;;1.77;1.45;;;13.30;99.90;;;;;;5013201;28;20210;-55
2023/10/21 06:37:21;;;;;;;4.20;1.52;;;13.40;99.90;;;;;;5011851;28;20204;-54
2023/10/21 06:39:47;;;;;;;3.35;1.60;;;13.40;99.90;;;;;;5012466;28;20164;-54
2023/10/21 06:42:13;;;;;;;4.30;1.65;;;13.40;99.90;;;;;;5011611;28;20179;-55
2023/10/21 06:44:39;;;;;;;1.50;1.08;;;13.50;99.90;;;;;;5013554;28;20543;-54
2023/10/21 06:47:05;;;;;;;2.03;1.20;;;16.00;99.90;;;;;;5012591;28;20164;-54
2023/10/21 06:49:30;;;;;;;1.20;1.10;;;13.50;99.90;;;;;;5013226;28;20208;-55
2023/10/21 06:51:57;;;;;;;4.45;1.45;;;13.60;99.90;;;;;;5012848;28;20207;-54
2023/10/21 06:54:23;;;;;;;2.78;1.10;;;13.70;99.90;;;;;;5012930;28;20196;-54
2023/10/21 06:56:49;;;;;;;4.47;2.03;;;14.80;99.90;;;;;;5011516;28;20204;-54
2023/10/21 06:59:15;;;;;;;4.70;1.95;;;14.70;99.90;;;;;;5012642;28;20574;-54
2023/10/21 07:01:41;;;;;;;3.00;1.98;;;13.80;99.90;;;;;;5011048;28;20259;-54
2023/10/21 07:04:09;;;;;;;2.30;1.30;;;13.90;99.90;;;;;;5011652;28;20191;-54
2023/10/21 07:06:38;;;;;;;2.88;1.40;;;15.60;99.90;;;;;;5013293;28;20171;-54
2023/10/21 07:09:04;;;;;;;1.75;1.38;;;14.10;99.90;;;;;;5012450;28;20174;-54
2023/10/21 07:11:30;;;;;;;6.30;2.00;;;14.10;99.90;;;;;;5011921;28;20360;-54
2023/10/21 07:13:56;;;;;;;2.35;1.45;;;14.10;99.90;;;;;;5010575;28;20168;-54
2023/10/21 07:16:22;;;;;;;2.08;0.98;;;14.10;99.90;;;;;;5010975;28;20610;-54
2023/10/21 07:18:48;;;;;;;1.48;0.80;;;14.00;99.90;;;;;;5012620;28;20172;-54
2023/10/21 07:21:14;;;;;;;1.65;0.70;;;14.00;99.90;;;;;;5012353;28;20235;-54
2023/10/21 07:23:40;;;;;;;1.40;0.77;;;14.10;99.90;;;;;;5012764;28;20249;-54
2023/10/21 07:26:06;;;;;;;3.42;0.77;;;14.20;99.90;;;;;;5012678;28;20727;-54
2023/10/21 07:28:33;;;;;;;0.82;0.50;;;15.90;99.90;;;;;;5012249;28;20263;-54
2023/10/21 07:31:00;;;;;;;2.78;0.80;;;14.10;99.90;;;;;;5012165;28;20299;-54
2023/10/21 07:33:26;;;;;;;3.05;1.55;;;14.20;99.90;;;;;;5010734;28;20175;-54
2023/10/21 07:35:51;;;;;;;3.55;1.70;;;14.20;99.90;;;;;;5011988;28;20251;-55
2023/10/21 07:38:18;;;;;;;7.20;2.25;;;14.30;99.90;;;;;;5009951;28;20632;-54
2023/10/21 07:40:44;;;;;;;4.50;1.80;;;14.20;99.90;;;;;;5010279;28;20183;-56
2023/10/21 07:43:10;;;;;;;3.90;1.50;;;14.30;99.90;;;;;;5011513;28;20169;-54
2023/10/21 07:45:38;;;;;;;2.47;1.45;;;14.20;99.90;;;;;;5012255;28;20538;-54
2023/10/21 07:48:04;;;;;;;0.93;0.70;;;14.30;99.90;;;;;;5010522;28;20164;-54
2023/10/21 07:50:29;;;;;;;0.70;0.60;;;14.40;99.90;;;;;;5010032;28;20525;-54
2023/10/21 07:52:55;;;;;;;1.10;0.88;;;14.50;99.90;;;;;;5010294;28;20179;-54
2023/10/21 07:55:21;;;;;;;2.00;1.25;;;14.60;99.90;;;;;;5011632;28;20657;-54
2023/10/21 07:57:46;;;;;;;2.08;1.52;;;14.70;99.90;;;;;;5011473;28;20182;-55
2023/10/21 08:00:13;;;;;;;4.88;1.77;;;14.70;99.90;;;;;;5010219;28;20176;-54
2023/10/21 08:02:40;;;;;;;3.00;1.13;;;14.80;99.90;;;;;;5012177;28;20190;-57
2023/10/21 08:05:09;;;;;;;1.45;0.63;;;15.00;99.90;;;;;;5010636;28;20179;-55
2023/10/21 08:07:35;;;;;;;0.82;0.32;;;15.00;99.90;;;;;;5010538;28;20167;-54
2023/10/21 08:10:05;;;;;;;0.95;0.50;;;14.90;99.90;;;;;;5011355;28;20224;-54
2023/10/21 08:12:35;;;;;;;0.85;0.50;;;14.80;99.90;;;;;;5010626;28;20210;-54
2023/10/21 08:15:05;;;;;;;0.70;0.40;;;14.60;99.90;;;;;;5010944;28;20218;-53
2023/10/21 08:17:31;;;;;;;2.17;0.52;;;14.70;99.90;;;;;;5010215;28;20643;-53
2023/10/21 08:19:57;;;;;;;0.80;0.52;;;14.60;99.90;;;;;;5011415;28;20168;-54
2023/10/21 08:22:22;;;;;;;1.05;0.38;;;14.50;99.90;;;;;;5010160;28;20624;-54
2023/10/21 08:24:48;;;;;;;3.08;0.60;;;14.50;99.90;;;;;;5010795;28;20698;-54
2023/10/21 08:27:14;;;;;;;2.05;1.30;;;14.50;99.90;;;;;;5010158;28;20179;-54
2023/10/21 08:29:41;;;;;;;1.25;0.95;;;14.40;99.90;;;;;;5011797;28;20659;-54
2023/10/21 08:32:07;;;;;;;2.15;0.70;;;15.30;99.90;;;;;;5012138;28;20241;-54
2023/10/21 08:34:32;;;;;;;0.52;0.50;;;14.30;99.90;;;;;;5010177;28;20624;-53
2023/10/21 08:36:59;;;;;;;0.80;0.60;;;14.30;99.90;;;;;;5009494;28;20182;-55
2023/10/21 08:39:24;;;;;;;0.73;0.43;;;14.30;99.90;;;;;;5011179;28;20735;-54
2023/10/21 08:41:50;;;;;;;0.90;0.60;;;14.30;99.90;;;;;;5010076;28;20266;-54
2023/10/21 08:44:17;;;;;;;2.88;0.50;;;14.30;99.90;;;;;;5011453;28;20168;-53
2023/10/21 08:46:44;;;;;;;2.53;0.60;;;14.30;99.90;;;;;;5011292;28;20663;-54
2023/10/21 08:49:12;;;;;;;0.73;0.47;;;14.30;99.90;;;;;;5011921;28;20263;-54
2023/10/21 08:51:37;;;;;;;4.60;0.95;;;14.20;99.90;;;;;;5011673;28;20183;-55
2023/10/21 08:54:04;;;;;;;3.25;0.70;;;14.20;99.90;;;;;;5011291;28;20168;-53
2023/10/21 08:56:33;;;;;;;1.25;0.70;;;14.20;99.90;;;;;;5011232;28;20168;-54
2023/10/21 08:59:00;;;;;;;1.50;1.02;;;14.50;99.90;;;;;;5011176;28;20658;-53
2023/10/21 09:01:26;;;;;;;1.70;0.82;;;14.70;99.90;;;;;;5011410;28;20278;-54
2023/10/21 09:03:52;;;;;;;1.88;0.98;;;14.70;99.90;;;;;;5009800;28;20657;-54
2023/10/21 09:06:17;;;;;;;5.43;1.20;;;14.80;99.90;;;;;;5011261;28;20508;-62
2023/10/21 09:08:45;;;;;;;3.28;1.20;;;15.00;99.90;;;;;;5011249;28;20183;-62
2023/10/21 09:11:14;;;;;;;2.45;1.17;;;15.10;99.90;;;;;;5010657;28;20660;-53
2023/10/21 09:13:40;;;;;;;4.82;1.55;;;15.20;99.90;;;;;;5011211;28;20611;-60
2023/10/21 09:16:26;;;;;;;5.65;1.67;;;15.40;99.90;;;;;;5011499;28;20168;-55
2023/10/21 09:18:57;;;;;;;4.30;1.60;;;15.50;99.90;;;;;;5011072;28;20172;-55
2023/10/21 09:21:38;;;;;;;2.03;0.90;;;15.50;99.90;;;;;;5011053;28;20521;-55
2023/10/21 09:24:11;;;;;;;3.45;0.77;;;15.60;99.90;;;;;;5010991;28;20187;-55
2023/10/21 09:26:39;;;;;;;1.77;0.70;;;15.50;99.90;;;;;;5014995;28;20694;-55
2023/10/21 09:29:07;;;;;;;3.97;0.75;;;15.50;99.90;;;;;;5015135;28;20187;-57
2023/10/21 09:31:55;;;;;;;0.65;0.45;;;15.20;99.90;;;;;;5014459;28;20203;-54
2023/10/21 09:34:33;;;;;;;3.75;0.93;;;15.00;99.90;;;;;;5014250;28;20632;-55
2023/10/21 09:37:06;;;;;;;0.70;0.60;;;15.00;99.90;;;;;;5013349;28;20527;-55
2023/10/21 09:39:34;;;;;;;1.90;0.98;;;14.90;99.90;;;;;;5014406;28;20254;-55
2023/10/21 09:42:04;;;;;;;1.23;0.82;;;15.10;99.90;;;;;;5014313;28;20965;-55
2023/10/21 09:44:30;;;;;;;3.00;1.10;;;15.00;99.90;;;;;;5014050;28;20171;-60
2023/10/21 09:46:58;;;;;;;2.78;1.13;;;15.10;99.90;;;;;;5013982;28;20165;-57
2023/10/21 09:49:24;;;;;;;1.52;1.00;;;15.00;99.90;;;;;;5013511;28;20267;-56
2023/10/21 09:52:09;;;;;;;5.65;1.58;;;15.00;99.90;;;;;;5012666;28;20179;-55
2023/10/21 09:54:55;;;;;;;5.50;1.55;;;15.10;99.90;;;;;;5014643;28;20179;-56
2023/10/21 09:57:22;;;;;;;5.82;2.00;;;15.40;99.90;;;;;;5013507;28;20179;-56
2023/10/21 09:59:49;;;;;;;3.67;1.38;;;15.70;99.90;;;;;;5013924;28;20533;-55
2023/10/21 10:02:15;;;;;;;2.75;1.50;;;15.90;99.90;;;;;;5013810;28;20168;-58
2023/10/21 10:04:41;;;;;;;3.08;1.10;;;16.10;99.90;;;;;;5013483;28;20516;-57
2023/10/21 10:07:07;;;;;;;5.45;1.30;;;16.00;99.90;;;;;;5013899;28;20179;-56
2023/10/21 10:09:38;;;;;;;3.67;1.20;;;16.10;99.90;;;;;;5013635;28;20254;-55
2023/10/21 10:12:10;;;;;;;4.18;1.25;;;16.20;99.90;;;;;;5013772;28;20182;-55
2023/10/21 10:14:36;;;;;;;7.68;1.70;;;16.10;99.90;;;;;;5013808;28;20172;-56
2023/10/21 10:17:05;;;;;;;4.68;1.30;;;16.30;99.90;;;;;;5013200;28;20230;-56
2023/10/21 10:19:39;;;;;;;1.23;1.02;;;16.40;99.90;;;;;;5012056;28;20264;-55
2023/10/21 10:22:28;;;;;;;1.80;0.90;;;16.60;99.90;;;;;;5013394;28;20344;-55
2023/10/21 10:24:58;;;;;;;5.63;2.28;;;18.30;99.90;;;;;;5013221;28;20202;-57
2023/10/21 10:27:44;;;;;;;8.27;3.38;;;17.00;99.90;;;;;;5013197;28;20160;-57
2023/10/21 10:30:22;;;;;;;4.45;1.40;;;17.00;99.90;;;;;;5012228;28;20274;-58
2023/10/21 10:32:51;;;;;;;4.47;1.85;;;16.70;99.90;;;;;;5013102;28;20556;-59
2023/10/21 10:35:40;;;;;;;12.63;1.75;;;16.60;99.90;;;;;;5013219;28;20254;-59
2023/10/21 10:38:35;;;;;;;5.85;2.22;;;16.70;99.90;;;;;;5012838;28;20199;-58
2023/10/21 10:41:10;;;;;;;3.45;1.65;;;16.60;99.90;;;;;;5013047;28;20176;-58
2023/10/21 10:43:39;;;;;;;4.13;1.58;;;16.60;99.90;;;;;;5013319;28;20160;-58
2023/10/21 10:46:06;;;;;;;8.88;1.77;;;16.60;99.90;;;;;;5013530;28;20172;-55
2023/10/21 10:48:32;;;;;;;4.30;1.48;;;16.60;99.90;;;;;;5012977;28;20169;-56
2023/10/21 10:51:00;;;;;;;6.13;0.98;;;16.70;99.90;;;;;;5012703;28;20207;-59
2023/10/21 10:53:27;;;;;;;3.88;1.63;;;16.70;99.90;;;;;;5013110;28;20531;-61
2023/10/21 10:55:56;;;;;;;9.07;2.08;;;16.70;99.90;;;;;;5012860;28;20168;-61
2023/10/21 10:58:22;;;;;;;3.58;2.08;;;16.70;99.90;;;;;;5012880;28;20175;-60
2023/10/21 11:00:48;;;;;;;5.93;2.33;;;16.70;99.90;;;;;;5012847;28;20206;-57
2023/10/21 11:03:31;;;;;;;6.43;1.73;;;16.80;99.90;;;;;;5012939;28;20199;-57
2023/10/21 11:05:57;;;;;;;7.82;2.00;;;16.90;99.90;;;;;;5012707;28;20176;-56
2023/10/21 11:08:24;;;;;;;5.05;1.95;;;16.90;99.90;;;;;;5012785;28;20206;-56
2023/10/21 11:10:53;;;;;;;8.18;2.20;;;17.00;99.90;;;;;;5012364;28;20266;-57
2023/10/21 11:13:21;;;;;;;1.85;1.30;;;17.00;99.90;;;;;;5012482;28;20164;-56
2023/10/21 11:15:51;;;;;;;5.10;2.22;;;16.90;99.90;;;;;;5012500;28;20176;-61
2023/10/21 11:18:18;;;;;;;5.40;1.92;;;16.70;99.90;;;;;;5010920;28;20198;-56
2023/10/21 11:20:48;;;;;;;5.38;2.05;;;16.90;99.90;;;;;;5011246;28;20168;-55
2023/10/21 11:23:16;;;;;;;8.05;1.40;;;17.00;99.90;;;;;;5012117;28;20183;-57
2023/10/21 11:25:42;;;;;;;6.22;1.80;;;16.80;99.90;;;;;;5012161;28;20168;-54
2023/10/21 11:28:08;;;;;;;4.90;1.75;;;16.90;99.90;;;;;;5012645;28;20172;-54
2023/10/21 11:30:34;;;;;;;4.13;1.95;;;17.10;99.90;;;;;;5012162;28;20273;-60
2023/10/21 11:33:09;;;;;;;5.50;1.77;;;17.20;99.90;;;;;;5011849;28;20164;-60
2023/10/21 11:35:39;;;;;;;8.30;1.90;;;17.30;99.90;;;;;;5012384;28;20184;-54
2023/10/21 11:38:05;;;;;;;7.93;2.58;;;17.30;99.90;;;;;;5012286;28;20572;-59
2023/10/21 11:40:35;;;;;;;3.72;2.08;;;17.40;99.90;;;;;;5012223;28;20184;-61
2023/10/21 11:43:04;;;;;;;5.22;2.33;;;17.30;99.90;;;;;;5011853;28;20160;-59
2023/10/21 11:45:30;;;;;;;8.35;2.40;;;17.30;99.90;;;;;;5012150;28;20175;-62
2023/10/21 11:47:57;;;;;;;5.78;2.50;;;17.30;99.90;;;;;;5012050;28;20175;-60
2023/10/21 11:50:25;;;;;;;7.63;2.00;;;17.20;99.90;;;;;;5011849;28;20200;-62
2023/10/21 11:52:51;;;;;;;3.58;1.85;;;17.30;99.90;;;;;;5012210;28;20164;-56
2023/10/21 12:19:33;;;;;;;9.50;2.42;;;17.10;99.90;;;;;;5011661;28;20183;-53
2023/10/21 12:40:32;;;;;;;8.27;2.40;;;17.10;99.90;;;;;;5011248;28;20225;-57
2023/10/21 12:45:47;;;;;;;6.05;2.15;;;17.10;99.90;;;;;;5010879;28;20542;-56
2023/10/21 12:48:14;;;;;;;5.85;2.08;;;17.10;99.90;;;;;;5011376;28;20168;-56
2023/10/21 12:50:40;;;;;;;4.57;1.80;;;17.00;99.90;;;;;;5010970;28;20222;-56
2023/10/21 12:53:08;;;;;;;8.68;2.55;;;16.90;99.90;;;;;;5011533;28;20587;-56
2023/10/21 12:55:35;;;;;;;5.65;2.30;;;16.90;99.90;;;;;;5011570;28;20590;-57
2023/10/21 12:58:01;;;;;;;8.68;2.53;;;16.90;99.90;;;;;;5011517;28;20168;-57
2023/10/21 13:00:27;;;;;;;5.68;1.42;;;16.90;99.90;;;;;;5013457;28;20535;-58
2023/10/21 13:02:53;;;;;;;6.00;1.52;;;16.60;99.90;;;;;;5013633;28;20160;-58
2023/10/21 13:05:19;;;;;;;5.45;2.05;;;16.70;99.90;;;;;;5012941;28;20169;-56
2023/10/21 13:07:44;;;;;;;6.07;2.40;;;16.90;99.90;;;;;;5013159;28;20198;-56
2023/10/21 13:10:10;;;;;;;8.30;3.75;;;17.00;99.90;;;;;;5013051;28;20675;-56
2023/10/21 13:12:37;;;;;;;7.60;2.58;;;16.90;99.90;;;;;;5013935;28;20200;-56
2023/10/21 13:15:09;;;;;;;9.00;2.45;;;16.80;99.90;;;;;;5013206;28;20255;-56
2023/10/21 13:17:35;;;;;;;4.80;1.75;;;16.60;99.90;;;;;;5014552;28;20172;-57
2023/10/21 13:20:01;;;;;;;8.95;2.55;;;16.60;99.90;;;;;;5014706;28;20665;-56
2023/10/21 13:22:26;;;;;;;6.45;2.38;;;16.70;99.90;;;;;;5014908;28;20183;-60
2023/10/21 13:24:52;;;;;;;10.10;3.35;;;16.80;99.90;;;;;;5014612;28;20161;-59
2023/10/21 13:27:18;;;;;;;19.15;3.58;;;16.80;99.90;;;;;;5014554;28;20175;-57
2023/10/21 13:29:43;;;;;;;6.82;2.38;;;16.80;99.90;;;;;;5014725;28;20192;-56